Aérodrome :
LOGIN :

S'inscrire | Disclaimer

   EN    FR    IT 

 










Légende :    VFR   VFR Marginal   IFR   IFR Intensif   IFR Très Intensif
Visi : 
Plafond : 
>= 8 km
>= 3000ft
5 à 8 km
1000 à 3000 ft
1500m à 5 km
500 à 1000 ft
800 à 1500m
200 à 500 ft
< 800m
< 200 ft
Symboles :   Orages  Brouillard  Fortes neiges  Fortes précipitations  Vent > 20 kt
SIGMETs :   Divers  Orages  Givrage  Turbulence  Onde Orograph.  Cendres Volcan.







- Altitude de l'aérodrome : 1197 ft
- Code IATA : SPM


ETAD - Spangdahlem Ab

DERNIER METAR :
  • 160756Z AUTO 24006KT 9999 CLR 18/10 A3016 RMK AO2 SLP195 T01750104 $

METARs EXPIRÉS :
  • 160656Z AUTO 22004KT 9999 CLR 16/11 A3015 RMK AO2 SLP192 T01600107 $
  • 160556Z AUTO 23006KT 9999 CLR 15/11 A3014 RMK AO2 SLP188 T01490109 10152 20131 52009 $

TAF TAF ETAD
Valide du 15 à 14h jusqu'au 16 à 20h UTC


151402Z 1514/1620 23012G22KT 9999 SCT050 QNH2998INS
BECMG 1517/1518 25012KT 9999 BKN030 BKN070 QNH3002INS
BECMG 1520/1521 25006KT 9999 BKN050 QNH3004INS WND 25012KT AFT 1610Z TX21/1514Z TN13/1604Z LAST NO AMDS AFT 1518 NEXT 1610
Pas de NOTAMs connus pour ce terrain.



MET'MAP, la Météo Aéronautique d'un coup d'oeil ! - Copyright ORBIFLY Décembre 2007 - Disclaimer

ORBIFLY MET'MAP TEAM :

Programmation & Développement : Alexandra Zaïnal
Conception & Développement : Baudouin d'Aumeries
Co-Programmation & Développement : Marc-Olivier Méhu
Soutien technique & logistique : Manuel Goepfert

Contact : metmap@orbifly.com




SOURCES & CREDITS :

   NOAA